Etusivu
METAR-TAF:

METAR-TAF

Lentoasemat :

Kangiqsualujjuaq, Quebec, Kanada

Leveyspiiri: 58-43N, Pituuspiiri: 065-59W, korkeus merenpinnasta: 60 m

Tämänhetkinen sää

Tämä raportti tehtiin 12 tuntia ja 55 minuuttia sitten, kello 22.00 UTC
Tuuli 3 kn lännestä/lounaasta, vaihdellen etelän/lounaan ja lännen välillä
Lämpötila -10°C
Kosteus 85%
Ilmanpaine 999 hPa
Näkyvyys: 8.0 km
Hajonneita pilviä 1200 ft:n korkeudessa
heikkoa lumisadetta

METAR: CYLU 052200Z 24003KT 200V270 5SM -SN BKN012 M10/M12 A2950 RMK SC5 LST STFD OB/NXT 061300Z SLP998

Aika: 05:55 (10:55 UTC)


TAF: puuttuu

Säähavainnot ja -ennusteet yli 4000 lentoasemalta (METAR- ja TAF-raportit).

Käytössä olevat sääasemat on merkitty karttaan keltaisilla ja punaisilla pisteillä.

Aseta hiiri pisteen päälle nähdäksesi sääaseman nimen.

Klikkaa sitten nähdäksesi säähavainnot ja -ennusteet.

Kartan vaihtaminen: klikkaa mustalla rastilla varustettuja vihreitä pisteitä, niin voit zoomata sisään; viivalla varustettua vihreää pistettä, niin voit zoomata ulos tai vihreitä nuolia, niin pääset viereisille kartoille.


METAR-TAF: